createdAt,value
2017-09-21T00:00:08.259Z,972.78
2017-09-21T00:01:17.281Z,972.76
2017-09-21T00:02:26.968Z,972.75
2017-09-21T00:03:36.620Z,972.74
2017-09-21T00:04:45.636Z,972.75
2017-09-21T00:05:55.289Z,972.76
2017-09-21T00:07:03.983Z,972.73
2017-09-21T00:08:12.996Z,972.78
2017-09-21T00:09:22.329Z,972.76
2017-09-21T00:10:31.024Z,972.77
2017-09-21T00:11:39.734Z,972.73
2017-09-21T00:12:49.077Z,972.76
2017-09-21T00:13:58.092Z,972.76
2017-09-21T00:15:07.428Z,972.77
2017-09-21T00:16:16.762Z,972.82
2017-09-21T00:17:25.457Z,972.77
2017-09-21T00:18:34.475Z,972.74
2017-09-21T00:19:43.168Z,972.75
2017-09-21T00:20:52.504Z,972.77
2017-09-21T00:22:01.520Z,972.73
2017-09-21T00:23:10.852Z,972.75
2017-09-21T00:24:19.875Z,972.75
2017-09-21T00:25:29.210Z,972.8
2017-09-21T00:26:38.547Z,972.77
2017-09-21T00:27:47.879Z,972.75
2017-09-21T00:28:56.575Z,972.75
2017-09-21T00:30:05.268Z,972.74
2017-09-21T00:31:13.965Z,972.74
2017-09-21T00:32:22.979Z,972.73
2017-09-21T00:33:31.993Z,972.72
2017-09-21T00:34:41.009Z,972.72
2017-09-21T00:35:50.025Z,972.7
2017-09-21T00:36:59.367Z,972.67
2017-09-21T00:38:08.704Z,972.67
2017-09-21T00:39:17.398Z,972.72
2017-09-21T00:40:26.094Z,972.68
2017-09-21T00:41:35.108Z,972.68
2017-09-21T00:42:44.121Z,972.69
2017-09-21T00:43:53.453Z,972.71
2017-09-21T00:45:02.470Z,972.77
2017-09-21T00:46:11.801Z,972.73
2017-09-21T00:47:20.813Z,972.71
2017-09-21T00:48:29.507Z,972.77
2017-09-21T00:49:39.158Z,972.73
2017-09-21T00:50:48.173Z,972.74
2017-09-21T00:51:57.186Z,972.72
2017-09-21T00:53:06.844Z,972.73
2017-09-21T00:54:15.859Z,972.7
2017-09-21T00:55:24.552Z,972.7
2017-09-21T00:56:33.887Z,972.72
2017-09-21T00:57:42.904Z,972.69
2017-09-21T00:58:52.558Z,972.66
2017-09-21T01:00:01.251Z,972.68
2017-09-21T01:01:09.943Z,972.7
2017-09-21T01:02:18.634Z,972.7
2017-09-21T01:03:27.650Z,972.74
2017-09-21T01:04:36.669Z,972.72
2017-09-21T01:05:45.684Z,972.7
2017-09-21T01:06:54.379Z,972.72
2017-09-21T01:08:03.073Z,972.68
2017-09-21T01:09:12.089Z,972.67
2017-09-21T01:10:20.779Z,972.66
2017-09-21T01:11:29.793Z,972.66
2017-09-21T01:12:38.484Z,972.64
2017-09-21T01:13:47.496Z,972.59
2017-09-21T01:14:56.827Z,972.57
2017-09-21T01:16:05.843Z,972.55
2017-09-21T01:17:14.542Z,972.5
2017-09-21T01:18:23.875Z,972.55
2017-09-21T01:19:32.891Z,972.57
2017-09-21T01:20:42.545Z,972.55
2017-09-21T01:21:52.522Z,972.55
2017-09-21T01:23:01.216Z,972.54
2017-09-21T01:24:09.911Z,972.55
2017-09-21T01:25:19.565Z,972.57
2017-09-21T01:26:28.258Z,972.53
2017-09-21T01:27:37.277Z,972.54
2017-09-21T01:28:46.612Z,972.5
2017-09-21T01:29:55.631Z,972.52
2017-09-21T01:31:04.325Z,972.53
2017-09-21T01:32:13.984Z,972.54
2017-09-21T01:33:23.000Z,972.55
2017-09-21T01:34:31.694Z,972.59
2017-09-21T01:35:41.028Z,972.6
2017-09-21T01:36:49.723Z,972.59
2017-09-21T01:37:58.740Z,972.63
2017-09-21T01:39:07.756Z,972.63
2017-09-21T01:40:16.769Z,972.58
2017-09-21T01:41:25.784Z,972.6
2017-09-21T01:42:34.795Z,972.57
2017-09-21T01:43:43.490Z,972.54
2017-09-21T01:44:52.182Z,972.53
2017-09-21T01:46:00.876Z,972.57
2017-09-21T01:47:09.889Z,972.51
2017-09-21T01:48:19.221Z,972.53
2017-09-21T01:49:27.918Z,972.53
2017-09-21T01:50:36.945Z,972.57
2017-09-21T01:51:45.966Z,972.59
2017-09-21T01:52:54.659Z,972.57
2017-09-21T01:54:04.314Z,972.54
2017-09-21T01:55:13.652Z,972.58
2017-09-21T01:56:22.667Z,972.56
2017-09-21T01:57:31.360Z,972.58
2017-09-21T01:58:40.697Z,972.55
2017-09-21T01:59:49.714Z,972.56
2017-09-21T02:00:58.409Z,972.6
2017-09-21T02:02:07.427Z,972.61
2017-09-21T02:03:16.442Z,972.57
2017-09-21T02:04:25.455Z,972.57
2017-09-21T02:05:34.149Z,972.6
2017-09-21T02:06:43.489Z,972.54
2017-09-21T02:07:52.506Z,972.57
2017-09-21T02:09:01.520Z,972.57
2017-09-21T02:10:10.535Z,972.57
2017-09-21T02:11:19.227Z,972.56
2017-09-21T02:12:28.563Z,972.58
2017-09-21T02:13:37.261Z,972.54
2017-09-21T02:14:46.921Z,972.53
2017-09-21T02:15:55.615Z,972.59
2017-09-21T02:17:05.268Z,972.6
2017-09-21T02:18:15.244Z,972.62
2017-09-21T02:19:24.581Z,972.64
2017-09-21T02:20:33.276Z,972.63
2017-09-21T02:21:42.289Z,972.59
2017-09-21T02:22:51.948Z,972.56
2017-09-21T02:24:00.958Z,972.54
2017-09-21T02:25:09.973Z,972.54
2017-09-21T02:26:18.986Z,972.54
2017-09-21T02:27:28.001Z,972.53
2017-09-21T02:28:37.022Z,972.51
2017-09-21T02:29:46.362Z,972.49
2017-09-21T02:30:55.373Z,972.5
2017-09-21T02:32:04.387Z,972.5
2017-09-21T02:33:13.741Z,972.5
2017-09-21T02:34:23.075Z,972.54
2017-09-21T02:35:31.773Z,972.55
2017-09-21T02:36:41.112Z,972.55
2017-09-21T02:37:50.768Z,972.58
2017-09-21T02:39:00.101Z,972.52
2017-09-21T02:40:09.762Z,972.51
2017-09-21T02:41:19.420Z,972.53
2017-09-21T02:42:29.073Z,972.54
2017-09-21T02:43:38.085Z,972.51
2017-09-21T02:44:46.779Z,972.51
2017-09-21T02:45:55.473Z,972.53
2017-09-21T02:47:04.485Z,972.52
2017-09-21T02:48:13.503Z,972.52
2017-09-21T02:49:22.517Z,972.59
2017-09-21T02:50:31.853Z,972.55
2017-09-21T02:51:41.189Z,972.57
2017-09-21T02:52:50.526Z,972.58
2017-09-21T02:54:00.191Z,972.59
2017-09-21T02:55:09.849Z,972.59
2017-09-21T02:56:18.869Z,972.59
2017-09-21T02:57:27.560Z,972.64
2017-09-21T02:58:36.254Z,972.63
2017-09-21T02:59:45.587Z,972.67
2017-09-21T03:00:54.280Z,972.66
2017-09-21T03:02:02.975Z,972.65
2017-09-21T03:03:12.312Z,972.63
2017-09-21T03:04:21.324Z,972.63
2017-09-21T03:05:30.338Z,972.6
2017-09-21T03:06:39.032Z,972.62
2017-09-21T03:07:48.683Z,972.59
2017-09-21T03:08:58.016Z,972.58
2017-09-21T03:10:07.030Z,972.59
2017-09-21T03:11:16.363Z,972.6
2017-09-21T03:12:25.375Z,972.63
2017-09-21T03:13:34.392Z,972.62
2017-09-21T03:14:43.723Z,972.64
2017-09-21T03:15:52.740Z,972.61
2017-09-21T03:17:01.434Z,972.6
2017-09-21T03:18:10.126Z,972.59
2017-09-21T03:19:18.821Z,972.56
2017-09-21T03:20:29.115Z,972.57
2017-09-21T03:21:38.129Z,972.54
2017-09-21T03:22:46.825Z,972.56
2017-09-21T03:23:55.839Z,972.54
2017-09-21T03:25:04.851Z,972.56
2017-09-21T03:26:14.510Z,972.55
2017-09-21T03:27:24.802Z,972.52
2017-09-21T03:28:33.817Z,972.58
2017-09-21T03:29:42.534Z,972.54
2017-09-21T03:30:51.549Z,972.54
2017-09-21T03:32:00.561Z,972.55
2017-09-21T03:33:09.257Z,972.56
2017-09-21T03:34:17.954Z,972.56
2017-09-21T03:35:26.652Z,972.51
2017-09-21T03:36:35.665Z,972.53
2017-09-21T03:37:44.679Z,972.52
2017-09-21T03:38:53.692Z,972.48
2017-09-21T03:40:02.710Z,972.47
2017-09-21T03:41:11.731Z,972.5
2017-09-21T03:42:20.746Z,972.43
2017-09-21T03:43:29.441Z,972.45
2017-09-21T03:44:38.471Z,972.45
2017-09-21T03:45:47.490Z,972.43
2017-09-21T03:46:56.823Z,972.42
2017-09-21T03:48:05.517Z,972.47
2017-09-21T03:49:14.211Z,972.46
2017-09-21T03:50:23.864Z,972.47
2017-09-21T03:51:32.880Z,972.44
2017-09-21T03:52:42.215Z,972.47
2017-09-21T03:53:50.909Z,972.47
2017-09-21T03:54:59.927Z,972.46
2017-09-21T03:56:08.622Z,972.43
2017-09-21T03:57:17.641Z,972.4
2017-09-21T03:58:26.656Z,972.39
2017-09-21T03:59:36.308Z,972.37
2017-09-21T04:00:45.963Z,972.35
2017-09-21T04:01:54.979Z,972.39
2017-09-21T04:03:03.993Z,972.38
2017-09-21T04:04:13.327Z,972.4
2017-09-21T04:05:22.341Z,972.41
2017-09-21T04:06:31.049Z,972.4
2017-09-21T04:07:40.071Z,972.46
2017-09-21T04:08:49.409Z,972.44
2017-09-21T04:09:58.427Z,972.47
2017-09-21T04:11:07.761Z,972.42
2017-09-21T04:12:18.062Z,972.44
2017-09-21T04:13:27.077Z,972.5
2017-09-21T04:14:36.090Z,972.46
2017-09-21T04:15:44.786Z,972.47
2017-09-21T04:16:53.481Z,972.45
2017-09-21T04:18:03.140Z,972.43
2017-09-21T04:19:11.837Z,972.46
2017-09-21T04:20:22.132Z,972.43
2017-09-21T04:21:31.146Z,972.46
2017-09-21T04:22:40.161Z,972.44
2017-09-21T04:23:49.177Z,972.47
2017-09-21T04:24:57.870Z,972.49
2017-09-21T04:26:06.884Z,972.46
2017-09-21T04:27:16.224Z,972.48
2017-09-21T04:28:25.237Z,972.47
2017-09-21T04:29:34.252Z,972.47
2017-09-21T04:30:44.231Z,972.48
2017-09-21T04:31:52.924Z,972.52
2017-09-21T04:33:01.618Z,972.48
2017-09-21T04:34:10.314Z,972.45
2017-09-21T04:35:19.651Z,972.49
2017-09-21T04:36:28.984Z,972.46
2017-09-21T04:37:38.639Z,972.46
2017-09-21T04:38:47.974Z,972.48
2017-09-21T04:39:57.307Z,972.51
2017-09-21T04:41:06.327Z,972.51
2017-09-21T04:42:15.026Z,972.5
2017-09-21T04:43:23.718Z,972.51
2017-09-21T04:44:32.736Z,972.5
2017-09-21T04:45:42.074Z,972.54
2017-09-21T04:46:51.087Z,972.51
2017-09-21T04:48:00.783Z,972.48
2017-09-21T04:49:09.478Z,972.49
2017-09-21T04:50:18.823Z,972.51
2017-09-21T04:51:27.517Z,972.5
2017-09-21T04:52:36.213Z,972.49
2017-09-21T04:53:45.546Z,972.5
2017-09-21T04:54:54.881Z,972.55
2017-09-21T04:56:04.215Z,972.48
2017-09-21T04:57:13.232Z,972.5
2017-09-21T04:58:22.571Z,972.54
2017-09-21T04:59:31.266Z,972.54
2017-09-21T05:00:39.961Z,972.55
2017-09-21T05:01:49.300Z,972.55
2017-09-21T05:02:58.956Z,972.51
2017-09-21T05:04:07.650Z,972.56
2017-09-21T05:05:16.991Z,972.49
2017-09-21T05:06:26.006Z,972.51
2017-09-21T05:07:35.350Z,972.5
2017-09-21T05:08:44.353Z,972.5
2017-09-21T05:09:53.687Z,972.47
2017-09-21T05:11:03.021Z,972.52
2017-09-21T05:12:13.010Z,972.54
2017-09-21T05:13:22.346Z,972.6
2017-09-21T05:14:32.002Z,972.56
2017-09-21T05:15:41.654Z,972.56
2017-09-21T05:16:50.667Z,972.54
2017-09-21T05:17:59.682Z,972.55
2017-09-21T05:19:08.373Z,972.56
2017-09-21T05:20:17.069Z,972.5
2017-09-21T05:21:26.409Z,972.57
2017-09-21T05:22:35.101Z,972.55
2017-09-21T05:23:44.118Z,972.55
2017-09-21T05:24:52.816Z,972.57
2017-09-21T05:26:01.507Z,972.56
2017-09-21T05:27:10.201Z,972.57
2017-09-21T05:28:18.896Z,972.6
2017-09-21T05:29:28.559Z,972.61
2017-09-21T05:30:37.898Z,972.59
2017-09-21T05:31:46.592Z,972.61
2017-09-21T05:32:55.604Z,972.62
2017-09-21T05:34:04.935Z,972.65
2017-09-21T05:35:13.631Z,972.65
2017-09-21T05:36:22.971Z,972.64
2017-09-21T05:37:31.986Z,972.64
2017-09-21T05:38:40.680Z,972.65
2017-09-21T05:39:49.375Z,972.66
2017-09-21T05:40:58.706Z,972.59
2017-09-21T05:42:07.401Z,972.62
2017-09-21T05:43:16.735Z,972.62
2017-09-21T05:44:26.068Z,972.68
2017-09-21T05:45:35.399Z,972.61
2017-09-21T05:46:44.412Z,972.66
2017-09-21T05:47:53.752Z,972.64
2017-09-21T05:49:03.412Z,972.61
2017-09-21T05:50:12.432Z,972.58
2017-09-21T05:51:21.444Z,972.6
2017-09-21T05:52:30.459Z,972.64
2017-09-21T05:53:39.155Z,972.65
2017-09-21T05:54:48.167Z,972.62
2017-09-21T05:55:56.864Z,972.61
2017-09-21T05:57:05.877Z,972.61
2017-09-21T05:58:15.531Z,972.62
2017-09-21T05:59:24.546Z,972.65
2017-09-21T06:00:33.559Z,972.63
2017-09-21T06:01:42.572Z,972.64
2017-09-21T06:02:51.908Z,972.63
2017-09-21T06:04:00.924Z,972.56
2017-09-21T06:05:10.580Z,972.55
2017-09-21T06:06:19.592Z,972.52
2017-09-21T06:07:28.927Z,972.55
2017-09-21T06:08:37.940Z,972.59
2017-09-21T06:09:46.955Z,972.53
2017-09-21T06:10:55.974Z,972.57
2017-09-21T06:12:04.988Z,972.54
2017-09-21T06:13:14.002Z,972.57
2017-09-21T06:14:23.019Z,972.61
2017-09-21T06:15:32.678Z,972.57
2017-09-21T06:16:41.692Z,972.62
2017-09-21T06:17:51.343Z,972.55
2017-09-21T06:19:00.362Z,972.59
2017-09-21T06:20:09.377Z,972.58
2017-09-21T06:21:19.034Z,972.59
2017-09-21T06:22:28.369Z,972.53
2017-09-21T06:23:37.383Z,972.55
2017-09-21T06:24:47.040Z,972.53
2017-09-21T06:25:56.376Z,972.54
2017-09-21T06:27:05.388Z,972.55
2017-09-21T06:28:14.721Z,972.58
2017-09-21T06:29:23.733Z,972.58
2017-09-21T06:30:32.754Z,972.58
2017-09-21T06:31:42.091Z,972.59
2017-09-21T06:32:51.105Z,972.57
2017-09-21T06:34:00.119Z,972.57
2017-09-21T06:35:09.138Z,972.54
2017-09-21T06:36:18.800Z,972.54
2017-09-21T06:37:28.460Z,972.52
2017-09-21T06:38:37.793Z,972.49
2017-09-21T06:39:46.805Z,972.53
2017-09-21T06:40:55.820Z,972.56
2017-09-21T06:42:04.513Z,972.52
2017-09-21T06:43:13.529Z,972.58
2017-09-21T06:44:22.226Z,972.56
2017-09-21T06:45:31.241Z,972.59
2017-09-21T06:46:40.613Z,972.57
2017-09-21T06:47:49.631Z,972.6
2017-09-21T06:48:58.966Z,972.56
2017-09-21T06:50:07.978Z,972.53
2017-09-21T06:51:16.676Z,972.59
2017-09-21T06:52:26.012Z,972.59
2017-09-21T06:53:34.707Z,972.57
2017-09-21T06:54:44.051Z,972.62
2017-09-21T06:55:53.391Z,972.61
2017-09-21T06:57:02.086Z,972.64
2017-09-21T06:58:11.421Z,972.64
2017-09-21T06:59:20.432Z,972.65
2017-09-21T07:00:29.449Z,972.67
2017-09-21T07:01:38.463Z,972.61
2017-09-21T07:02:47.165Z,972.63
2017-09-21T07:03:56.176Z,972.63
2017-09-21T07:05:05.192Z,972.68
2017-09-21T07:06:14.211Z,972.67
2017-09-21T07:07:23.557Z,972.69
2017-09-21T07:08:33.204Z,972.77
2017-09-21T07:09:42.220Z,972.74
2017-09-21T07:10:51.553Z,972.74
2017-09-21T07:12:00.247Z,972.76
2017-09-21T07:13:09.901Z,972.75
2017-09-21T07:14:18.915Z,972.75
2017-09-21T07:15:27.929Z,972.74
2017-09-21T07:16:36.946Z,972.78
2017-09-21T07:17:45.641Z,972.77
2017-09-21T07:18:54.976Z,972.76
2017-09-21T07:20:03.674Z,972.8
2017-09-21T07:21:12.688Z,972.88
2017-09-21T07:22:22.338Z,972.86
2017-09-21T07:23:31.996Z,972.87
2017-09-21T07:24:41.013Z,972.9
2017-09-21T07:25:50.033Z,972.89
2017-09-21T07:26:59.689Z,972.86
2017-09-21T07:28:08.707Z,972.86
2017-09-21T07:29:18.046Z,972.88
2017-09-21T07:30:26.741Z,972.93
2017-09-21T07:31:36.078Z,972.9
2017-09-21T07:32:44.772Z,972.88
2017-09-21T07:33:53.809Z,972.89
2017-09-21T07:35:02.829Z,972.93
2017-09-21T07:36:12.163Z,972.93
2017-09-21T07:37:21.501Z,972.95
2017-09-21T07:38:30.515Z,972.97
2017-09-21T07:39:39.214Z,972.93
2017-09-21T07:40:48.548Z,972.96
2017-09-21T07:41:57.566Z,972.96
2017-09-21T07:43:07.220Z,972.99
2017-09-21T07:44:16.235Z,973.04
2017-09-21T07:45:25.252Z,973.02
2017-09-21T07:46:33.947Z,973.04
2017-09-21T07:47:42.650Z,973.04
2017-09-21T07:48:51.983Z,973.09
2017-09-21T07:50:00.995Z,973.04
2017-09-21T07:51:10.332Z,973.08
2017-09-21T07:52:19.027Z,973.05
2017-09-21T07:53:28.045Z,973.07
2017-09-21T07:54:38.024Z,973.1
2017-09-21T07:55:46.735Z,973.14
2017-09-21T07:56:56.074Z,973.1
2017-09-21T07:58:05.091Z,973.14
2017-09-21T07:59:14.117Z,973.11
2017-09-21T08:00:22.817Z,973.15
2017-09-21T08:01:32.475Z,973.12
2017-09-21T08:02:41.176Z,973.13
2017-09-21T08:03:50.839Z,973.08
2017-09-21T08:05:00.176Z,973.14
2017-09-21T08:06:09.513Z,973.1
2017-09-21T08:07:18.857Z,973.09
2017-09-21T08:08:27.873Z,973.09
2017-09-21T08:09:36.898Z,973.05
2017-09-21T08:10:45.950Z,973.06
2017-09-21T08:11:54.972Z,973.08
2017-09-21T08:13:04.644Z,973.03
2017-09-21T08:14:13.979Z,973.08
2017-09-21T08:15:22.994Z,973.07
2017-09-21T08:16:32.972Z,973.07
2017-09-21T08:17:41.672Z,973.04
2017-09-21T08:18:51.006Z,973.07
2017-09-21T08:20:00.663Z,973.05
2017-09-21T08:21:09.680Z,973.07
2017-09-21T08:22:18.379Z,973.06
2017-09-21T08:23:27.398Z,973.08
2017-09-21T08:24:36.094Z,973.07
2017-09-21T08:25:45.753Z,973.07
2017-09-21T08:26:55.097Z,973.1
2017-09-21T08:28:04.112Z,973.1
2017-09-21T08:29:13.452Z,973.13
2017-09-21T08:30:22.792Z,973.1
2017-09-21T08:31:32.130Z,973.09
2017-09-21T08:32:41.146Z,973.12
2017-09-21T08:33:50.803Z,973.1
2017-09-21T08:34:59.820Z,973.1
2017-09-21T08:36:08.837Z,973.08
2017-09-21T08:37:18.494Z,973.1
2017-09-21T08:38:27.545Z,973.13
2017-09-21T08:39:37.203Z,973.1
2017-09-21T08:40:47.186Z,973.16
2017-09-21T08:41:56.208Z,973.1
2017-09-21T08:43:05.544Z,973.14
2017-09-21T08:44:14.571Z,973.2
2017-09-21T08:45:24.232Z,973.1
2017-09-21T08:46:33.567Z,973.06
2017-09-21T08:47:42.263Z,973.09
2017-09-21T08:48:51.599Z,973.13
2017-09-21T08:50:00.298Z,973.06
2017-09-21T08:51:09.641Z,973.08
2017-09-21T08:52:18.981Z,973.14
2017-09-21T08:53:28.001Z,973.08
2017-09-21T08:54:36.699Z,973.11
2017-09-21T08:55:46.042Z,973.06
2017-09-21T08:56:54.737Z,973.07
2017-09-21T08:58:03.752Z,973.08
2017-09-21T08:59:13.092Z,973.07
2017-09-21T09:00:22.114Z,973.05
2017-09-21T09:01:31.448Z,973.02
2017-09-21T09:02:40.145Z,973.16
2017-09-21T09:03:48.845Z,973.05
2017-09-21T09:04:57.862Z,973.07
2017-09-21T09:06:06.558Z,973.06
2017-09-21T09:07:15.255Z,973.04
2017-09-21T09:08:24.591Z,973.05
2017-09-21T09:09:33.606Z,973.03
2017-09-21T09:10:42.304Z,973.02
2017-09-21T09:11:51.647Z,972.99
2017-09-21T09:13:00.342Z,973.01
2017-09-21T09:14:09.681Z,973.05
2017-09-21T09:15:18.377Z,972.99
2017-09-21T09:16:27.073Z,973
2017-09-21T09:17:35.768Z,973.02
2017-09-21T09:18:44.786Z,973.01
2017-09-21T09:19:54.123Z,973.13
2017-09-21T09:21:03.147Z,973.05
2017-09-21T09:22:12.164Z,973.02
2017-09-21T09:23:21.185Z,973.02
2017-09-21T09:24:30.202Z,973.09
2017-09-21T09:25:39.543Z,972.99
2017-09-21T09:26:48.235Z,973.07
2017-09-21T09:27:57.572Z,973.05
2017-09-21T09:29:06.590Z,973.02
2017-09-21T09:30:16.245Z,972.97
2017-09-21T09:31:26.225Z,972.97
2017-09-21T09:32:34.922Z,973
2017-09-21T09:33:43.624Z,972.89
2017-09-21T09:34:52.639Z,972.91
2017-09-21T09:36:01.654Z,972.89
2017-09-21T09:37:10.678Z,972.91
2017-09-21T09:38:19.694Z,972.85
2017-09-21T09:39:28.717Z,972.88
2017-09-21T09:40:37.730Z,972.84
2017-09-21T09:41:46.752Z,972.91
2017-09-21T09:42:56.414Z,972.83
2017-09-21T09:44:05.431Z,972.9
2017-09-21T09:45:14.131Z,972.91
2017-09-21T09:46:22.833Z,972.88
2017-09-21T09:47:31.536Z,972.95
2017-09-21T09:48:40.874Z,972.9
2017-09-21T09:49:49.894Z,972.88
2017-09-21T09:50:58.913Z,972.83
2017-09-21T09:52:07.936Z,972.84
2017-09-21T09:53:17.277Z,972.87
2017-09-21T09:54:26.303Z,972.85
2017-09-21T09:55:35.324Z,972.86
2017-09-21T09:56:44.343Z,972.8
2017-09-21T09:57:53.691Z,972.82
2017-09-21T09:59:02.715Z,972.71
2017-09-21T10:00:11.738Z,972.74
2017-09-21T10:01:20.439Z,972.71
2017-09-21T10:02:29.468Z,972.72
2017-09-21T10:03:38.808Z,972.72
2017-09-21T10:04:47.510Z,972.73
2017-09-21T10:05:56.852Z,972.75
2017-09-21T10:07:05.873Z,972.76
2017-09-21T10:08:15.217Z,972.71
2017-09-21T10:09:24.561Z,972.72
2017-09-21T10:10:33.920Z,972.78
2017-09-21T10:11:43.264Z,972.78
2017-09-21T10:12:51.966Z,972.8
2017-09-21T10:14:01.316Z,972.8
2017-09-21T10:15:10.019Z,972.82
2017-09-21T10:16:18.721Z,972.83
2017-09-21T10:17:28.382Z,972.81
2017-09-21T10:18:37.404Z,972.84
2017-09-21T10:19:46.427Z,972.78
2017-09-21T10:20:55.130Z,972.77
2017-09-21T10:22:04.151Z,972.83
2017-09-21T10:23:13.490Z,972.82
2017-09-21T10:24:22.510Z,972.75
2017-09-21T10:25:31.854Z,972.82
2017-09-21T10:26:41.239Z,972.82
2017-09-21T10:27:49.905Z,972.81
2017-09-21T10:28:58.608Z,972.82
2017-09-21T10:30:07.314Z,972.8
2017-09-21T10:31:16.337Z,972.85
2017-09-21T10:32:25.359Z,972.8
2017-09-21T10:33:34.061Z,972.82
2017-09-21T10:34:43.403Z,972.81
2017-09-21T10:35:52.747Z,972.83
2017-09-21T10:37:01.772Z,972.81
2017-09-21T10:38:10.475Z,972.8
2017-09-21T10:39:19.820Z,972.81
2017-09-21T10:40:29.482Z,972.86
2017-09-21T10:41:38.826Z,972.83
2017-09-21T10:42:48.172Z,972.79
2017-09-21T10:43:57.195Z,972.8
2017-09-21T10:45:05.901Z,972.82
2017-09-21T10:46:14.924Z,972.79
2017-09-21T10:47:24.589Z,972.8
2017-09-21T10:48:33.933Z,972.8
2017-09-21T10:49:42.637Z,972.76
2017-09-21T10:50:51.342Z,972.79
2017-09-21T10:52:00.684Z,972.78
2017-09-21T10:53:09.706Z,972.78
2017-09-21T10:54:18.731Z,972.81
2017-09-21T10:55:27.434Z,972.86
2017-09-21T10:56:36.783Z,972.77
2017-09-21T10:57:45.808Z,972.73
2017-09-21T10:58:55.152Z,972.74
2017-09-21T11:00:04.500Z,972.75
2017-09-21T11:01:13.204Z,972.74
2017-09-21T11:02:23.183Z,972.74
2017-09-21T11:03:32.214Z,972.73
2017-09-21T11:04:41.236Z,972.68
2017-09-21T11:05:50.898Z,972.67
2017-09-21T11:06:59.925Z,972.68
2017-09-21T11:08:09.269Z,972.67
2017-09-21T11:09:18.609Z,972.7
2017-09-21T11:10:27.322Z,972.72
2017-09-21T11:11:36.665Z,972.68
2017-09-21T11:12:45.369Z,972.69
2017-09-21T11:13:54.713Z,972.69
2017-09-21T11:15:03.740Z,972.71
2017-09-21T11:16:12.758Z,972.7
2017-09-21T11:17:21.462Z,972.73
2017-09-21T11:18:30.164Z,972.72
2017-09-21T11:19:39.190Z,972.73
2017-09-21T11:20:48.533Z,972.69
2017-09-21T11:21:57.876Z,972.7
2017-09-21T11:23:06.583Z,972.67
2017-09-21T11:24:15.323Z,972.64
2017-09-21T11:25:23.990Z,972.68
2017-09-21T11:26:33.331Z,972.63
2017-09-21T11:27:42.033Z,972.64
2017-09-21T11:28:51.056Z,972.64
2017-09-21T11:30:01.037Z,972.59
2017-09-21T11:31:09.737Z,972.64
2017-09-21T11:32:18.762Z,972.67
2017-09-21T11:33:27.785Z,972.69
2017-09-21T11:34:36.822Z,972.65
2017-09-21T11:35:46.162Z,972.72
2017-09-21T11:36:54.865Z,972.74
2017-09-21T11:38:04.208Z,972.66
2017-09-21T11:39:13.553Z,972.64
2017-09-21T11:40:22.577Z,972.69
2017-09-21T11:41:31.601Z,972.63
2017-09-21T11:42:40.943Z,972.64
2017-09-21T11:43:49.966Z,972.61
2017-09-21T11:44:58.984Z,972.62
2017-09-21T11:46:08.010Z,972.59
2017-09-21T11:47:17.354Z,972.63
2017-09-21T11:48:27.021Z,972.65
2017-09-21T11:49:36.366Z,972.69
2017-09-21T11:50:45.387Z,972.73
2017-09-21T11:51:54.732Z,972.69
2017-09-21T11:53:04.077Z,972.51
2017-09-21T11:54:13.740Z,972.38
2017-09-21T11:55:22.773Z,972.37
2017-09-21T11:56:32.117Z,972.37
2017-09-21T11:57:40.819Z,972.4
2017-09-21T11:58:50.159Z,972.34
2017-09-21T11:59:59.506Z,972.36
2017-09-21T12:01:08.850Z,972.35
2017-09-21T12:02:18.195Z,972.32
2017-09-21T12:03:27.220Z,972.33
2017-09-21T12:04:36.558Z,972.3
2017-09-21T12:05:45.904Z,972.27
2017-09-21T12:06:55.565Z,972.23
2017-09-21T12:08:04.585Z,972.23
2017-09-21T12:09:13.927Z,972.21
2017-09-21T12:10:23.271Z,972.18
2017-09-21T12:11:33.250Z,972.2
2017-09-21T12:12:42.273Z,972.23
2017-09-21T12:13:50.975Z,972.14
2017-09-21T12:15:00.313Z,972.16
2017-09-21T12:16:09.973Z,972.12
2017-09-21T12:17:18.674Z,972.07
2017-09-21T12:18:27.693Z,972.18
2017-09-21T12:19:36.393Z,972.15
2017-09-21T12:20:45.410Z,972.14
2017-09-21T12:21:54.432Z,972.2
2017-09-21T12:23:03.135Z,972.16
2017-09-21T12:24:12.794Z,972.16
2017-09-21T12:25:21.811Z,972.13
2017-09-21T12:26:30.829Z,972.16
2017-09-21T12:27:39.848Z,972.12
2017-09-21T12:28:48.548Z,972.11
2017-09-21T12:29:57.899Z,972.09
2017-09-21T12:31:06.924Z,972.12
2017-09-21T12:32:16.267Z,972.09
2017-09-21T12:33:25.285Z,972.08
2017-09-21T12:34:34.630Z,972.13
2017-09-21T12:35:43.975Z,972.13
2017-09-21T12:36:53.027Z,972.11
2017-09-21T12:38:02.376Z,972.08
2017-09-21T12:39:11.396Z,972.07
2017-09-21T12:40:21.057Z,972.09
2017-09-21T12:41:31.035Z,972.03
2017-09-21T12:42:40.053Z,972.06
2017-09-21T12:43:48.755Z,972
2017-09-21T12:44:58.434Z,972
2017-09-21T12:46:07.775Z,972.04
2017-09-21T12:47:17.758Z,972.06
2017-09-21T12:48:26.776Z,972.02
2017-09-21T12:49:35.796Z,972.05
2017-09-21T12:50:44.816Z,972.03
2017-09-21T12:51:54.165Z,972
2017-09-21T12:53:03.185Z,971.98
2017-09-21T12:54:12.527Z,971.99
2017-09-21T12:55:21.546Z,971.99
2017-09-21T12:56:30.886Z,972
2017-09-21T12:57:39.581Z,971.93
2017-09-21T12:58:49.248Z,971.94
2017-09-21T12:59:58.582Z,971.9
2017-09-21T13:01:07.280Z,971.9
2017-09-21T13:02:15.977Z,971.88
2017-09-21T13:03:25.638Z,971.87
2017-09-21T13:04:34.659Z,971.88
2017-09-21T13:05:43.358Z,971.84
2017-09-21T13:06:53.021Z,971.82
2017-09-21T13:08:02.039Z,971.78
2017-09-21T13:09:11.058Z,971.76
2017-09-21T13:10:20.401Z,971.78
2017-09-21T13:11:29.101Z,971.83
2017-09-21T13:12:38.441Z,971.82
2017-09-21T13:13:47.778Z,971.83
2017-09-21T13:14:56.797Z,971.83
2017-09-21T13:16:06.135Z,971.84
2017-09-21T13:17:15.796Z,971.83
2017-09-21T13:18:25.494Z,971.79
2017-09-21T13:19:34.478Z,971.82
2017-09-21T13:20:43.202Z,971.78
2017-09-21T13:21:52.198Z,971.8
2017-09-21T13:23:01.539Z,971.79
2017-09-21T13:24:10.888Z,971.78
2017-09-21T13:25:20.229Z,971.76
2017-09-21T13:26:29.564Z,971.73
2017-09-21T13:27:38.900Z,971.75
2017-09-21T13:28:48.236Z,971.76
2017-09-21T13:29:57.259Z,971.7
2017-09-21T13:31:06.595Z,971.72
2017-09-21T13:32:15.615Z,971.71
2017-09-21T13:33:24.632Z,971.69
2017-09-21T13:34:34.612Z,971.71
2017-09-21T13:35:43.950Z,971.74
2017-09-21T13:36:52.645Z,971.72
2017-09-21T13:38:01.663Z,971.69
2017-09-21T13:39:10.683Z,971.71
2017-09-21T13:40:19.699Z,971.7
2017-09-21T13:41:28.715Z,971.67
2017-09-21T13:42:37.412Z,971.69
2017-09-21T13:43:46.428Z,971.68
2017-09-21T13:44:55.445Z,971.7
2017-09-21T13:46:04.143Z,971.74
2017-09-21T13:47:13.170Z,971.67
2017-09-21T13:48:22.186Z,971.65
2017-09-21T13:49:31.207Z,971.7
2017-09-21T13:50:40.224Z,971.73
2017-09-21T13:51:48.918Z,971.64
2017-09-21T13:52:57.936Z,971.67
2017-09-21T13:54:07.272Z,971.66
2017-09-21T13:55:15.970Z,971.7
2017-09-21T13:56:24.670Z,971.66
2017-09-21T13:57:34.009Z,971.72
2017-09-21T13:58:43.022Z,971.7
2017-09-21T13:59:51.722Z,971.67
2017-09-21T14:01:01.061Z,971.65
2017-09-21T14:02:10.397Z,971.66
2017-09-21T14:03:19.417Z,971.66
2017-09-21T14:04:28.118Z,971.69
2017-09-21T14:05:37.456Z,971.69
2017-09-21T14:06:46.474Z,971.64
2017-09-21T14:07:55.811Z,971.68
2017-09-21T14:09:05.153Z,971.67
2017-09-21T14:10:14.175Z,971.69
2017-09-21T14:11:23.848Z,971.67
2017-09-21T14:12:32.872Z,971.66
2017-09-21T14:13:41.573Z,971.68
2017-09-21T14:14:50.919Z,971.67
2017-09-21T14:16:00.255Z,971.62
2017-09-21T14:17:09.591Z,971.66
2017-09-21T14:18:18.607Z,971.64
2017-09-21T14:19:27.625Z,971.62
2017-09-21T14:20:36.643Z,971.61
2017-09-21T14:21:45.662Z,971.59
2017-09-21T14:22:54.998Z,971.58
2017-09-21T14:24:03.694Z,971.59
2017-09-21T14:25:12.711Z,971.59